Time;durP1;ratioP1;P1;durP2;ratioP2;P2;SDS_P1;SDS_P2;PMS_P1;PMS_P2;Temp;Humidity;BMP_temperature;BMP_pressure;BME280_temperature;BME280_humidity;BME280_pressure;Samples;Min_cycle;Max_cycle;Signal;HPM_P1;HPM_P2
2022/09/20 00:01:09;;;;;;;2.67;1.20;;;;;;;9.63;100.00;99400.97;4900955;29;20044;-76
2022/09/20 00:03:37;;;;;;;1.30;1.20;;;;;;;9.67;100.00;99414.72;4900544;29;20036;-77
2022/09/20 00:06:05;;;;;;;2.67;1.35;;;;;;;9.55;100.00;99401.94;4917454;29;20040;-79
2022/09/20 00:08:31;;;;;;;1.45;1.35;;;;;;;9.63;100.00;99415.09;4900415;29;20529;-77
2022/09/20 00:11:05;;;;;;;3.87;1.43;;;;;;;9.69;100.00;99428.63;4917263;29;20040;-76
2022/09/20 00:13:32;;;;;;;2.77;1.57;;;;;;;9.67;100.00;99431.47;4900298;29;20067;-76
2022/09/20 00:15:58;;;;;;;1.60;1.50;;;;;;;9.54;100.00;99416.22;4917285;29;20048;-77
2022/09/20 00:18:26;;;;;;;2.30;1.20;;;;;;;9.65;100.00;99438.81;4918651;29;20044;-77
2022/09/20 00:20:52;;;;;;;1.40;1.30;;;;;;;9.65;100.00;99438.00;4918995;29;20044;-76
2022/09/20 00:23:18;;;;;;;2.10;1.50;;;;;;;9.62;100.00;99445.34;4918057;29;20077;-76
2022/09/20 00:25:45;;;;;;;1.77;1.60;;;;;;;9.68;100.00;99461.53;4917641;29;20044;-76
2022/09/20 00:28:11;;;;;;;1.70;1.57;;;;;;;9.67;100.00;99463.38;4900439;29;20044;-76
2022/09/20 00:30:37;;;;;;;1.67;1.57;;;;;;;9.67;100.00;99470.53;4917641;29;20051;-76
2022/09/20 00:33:03;;;;;;;1.40;1.30;;;;;;;9.68;100.00;99469.53;4918020;29;20048;-77
2022/09/20 00:35:29;;;;;;;1.40;1.30;;;;;;;9.69;100.00;99466.69;4921468;29;20040;-75
2022/09/20 00:37:55;;;;;;;2.23;1.53;;;;;;;9.70;100.00;99472.81;4910103;29;20043;-75
2022/09/20 00:40:25;;;;;;;6.23;1.40;;;;;;;9.60;100.00;99468.63;4931025;29;20056;-74
2022/09/20 00:42:51;;;;;;;2.40;1.50;;;;;;;9.68;100.00;99480.16;4941054;29;20055;-75
2022/09/20 00:45:25;;;;;;;1.43;1.23;;;;;;;9.68;100.00;99488.94;4940576;29;20044;-76
2022/09/20 00:48:03;;;;;;;3.10;1.80;;;;;;;9.71;100.00;99490.41;4941231;29;20036;-77
2022/09/20 00:50:44;;;;;;;1.73;1.40;;;;;;;9.72;100.00;99489.41;4924858;29;20040;-77
2022/09/20 00:53:17;;;;;;;1.83;1.40;;;;;;;9.62;100.00;99487.88;4918217;29;20119;-75
2022/09/20 00:55:48;;;;;;;1.30;1.20;;;;;;;9.70;100.00;99491.44;4901076;29;20042;-75
2022/09/20 00:58:15;;;;;;;1.77;1.30;;;;;;;9.62;100.00;99492.38;4917398;29;20032;-75
2022/09/20 01:00:43;;;;;;;1.30;1.20;;;;;;;9.67;99.98;99505.91;4917635;29;20036;-78
2022/09/20 01:03:11;;;;;;;2.83;1.40;;;;;;;9.70;99.83;99510.84;4885986;29;20111;-77
2022/09/20 01:05:38;;;;;;;4.25;1.30;;;;;;;9.72;99.98;99508.84;4918242;29;20156;-75
2022/09/20 01:08:05;;;;;;;1.43;1.33;;;;;;;9.67;100.00;99495.28;4935271;29;20036;-76
2022/09/20 01:10:31;;;;;;;1.53;1.43;;;;;;;9.68;99.04;99501.44;4937938;29;20115;-76
2022/09/20 01:12:57;;;;;;;1.50;1.40;;;;;;;9.71;99.35;99509.03;4917078;29;20039;-75
2022/09/20 01:15:26;;;;;;;1.50;1.40;;;;;;;9.73;99.31;99525.59;4932653;29;20123;-77
2022/09/20 01:17:55;;;;;;;1.80;1.70;;;;;;;9.75;99.09;99521.75;4918641;29;20445;-76
2022/09/20 01:20:57;;;;;;;3.80;1.60;;;;;;;9.78;98.85;99528.53;4919619;29;20099;-77
2022/09/20 01:24:00;;;;;;;2.97;1.50;;;;;;;9.75;98.85;99527.06;4892693;29;20047;-76
2022/09/20 01:26:47;;;;;;;2.83;1.90;;;;;;;9.74;98.95;99532.56;4924966;29;20095;-74
2022/09/20 01:29:46;;;;;;;2.70;1.63;;;;;;;9.77;98.91;99535.69;4886274;29;20091;-75
2022/09/20 01:32:15;;;;;;;2.63;1.57;;;;;;;9.75;99.03;99540.34;4917135;29;20036;-76
2022/09/20 01:34:52;;;;;;;2.57;1.83;;;;;;;9.77;98.94;99542.81;4917221;29;20044;-76
2022/09/20 01:37:21;;;;;;;4.00;1.90;;;;;;;9.79;98.81;99557.59;4899095;29;20040;-76
2022/09/20 01:40:09;;;;;;;1.85;1.58;;;;;;;9.79;98.41;99546.13;4915695;29;20059;-76
2022/09/20 01:42:42;;;;;;;3.27;2.13;;;;;;;9.73;98.02;99562.81;4899297;29;20048;-76
2022/09/20 01:45:21;;;;;;;3.50;2.43;;;;;;;9.78;98.01;99565.75;4899661;29;20040;-76
2022/09/20 01:48:11;;;;;;;3.23;2.50;;;;;;;9.79;98.03;99570.06;4899060;29;20039;-76
2022/09/20 01:50:54;;;;;;;3.93;2.47;;;;;;;9.80;98.18;99569.03;4915443;29;20492;-76
2022/09/20 01:53:57;;;;;;;4.37;2.30;;;;;;;9.81;98.13;99570.69;4915741;29;20036;-77
2022/09/20 01:56:32;;;;;;;3.93;2.33;;;;;;;9.79;98.25;99578.84;4915708;29;20099;-75
2022/09/20 01:59:15;;;;;;;5.20;2.00;;;;;;;9.77;98.46;99585.38;4915567;29;20063;-75
2022/09/20 02:01:52;;;;;;;2.00;1.80;;;;;;;9.75;98.40;99592.72;4918321;29;20040;-75
2022/09/20 02:04:45;;;;;;;2.13;1.37;;;;;;;9.74;98.52;99599.03;4902550;29;20048;-77
2022/09/20 02:07:36;;;;;;;2.10;1.90;;;;;;;9.71;98.72;99594.91;4902550;29;20044;-75
2022/09/20 02:10:24;;;;;;;1.83;1.50;;;;;;;9.72;99.06;99598.41;4919570;29;20071;-76
2022/09/20 02:13:02;;;;;;;1.80;1.60;;;;;;;9.68;99.35;99602.44;4919341;29;20494;-76
2022/09/20 02:16:11;;;;;;;3.20;1.60;;;;;;;9.68;99.32;99610.41;4919330;29;20730;-75
2022/09/20 02:18:51;;;;;;;1.83;1.73;;;;;;;9.65;99.69;99608.97;4922469;29;20086;-75
2022/09/20 02:21:51;;;;;;;2.90;1.50;;;;;;;9.61;99.34;99613.00;4920622;29;20059;-76
2022/09/20 02:24:29;;;;;;;1.53;1.40;;;;;;;9.60;99.65;99617.50;4886853;29;20571;-75
2022/09/20 02:26:55;;;;;;;3.00;1.50;;;;;;;9.59;99.12;99618.50;4902360;29;20407;-75
2022/09/20 02:29:39;;;;;;;1.77;1.50;;;;;;;9.59;99.45;99626.47;4919360;29;20044;-74
2022/09/20 02:32:29;;;;;;;2.00;1.77;;;;;;;9.59;99.02;99631.78;4919324;29;20043;-75
2022/09/20 02:35:37;;;;;;;2.70;2.10;;;;;;;9.58;99.48;99630.13;4919098;29;20059;-76
2022/09/20 02:38:06;;;;;;;;;;;;;;;9.59;98.93;99637.09;4919041;29;20456;-76
2022/09/20 02:40:55;;;;;;;1.77;1.67;;;;;;;9.57;99.04;99639.13;4919443;29;19954;-75
2022/09/20 02:43:24;;;;;;;2.00;1.80;;;;;;;9.55;99.01;99645.63;4919866;29;20496;-75
2022/09/20 02:46:30;;;;;;;1.60;1.50;;;;;;;9.55;98.63;99646.47;4919387;29;20456;-77
2022/09/20 02:49:06;;;;;;;2.17;1.97;;;;;;;9.54;98.11;99644.81;4919532;29;20032;-77
2022/09/20 02:51:37;;;;;;;1.90;1.80;;;;;;;9.56;97.34;99653.44;4920629;29;20484;-76
2022/09/20 02:54:14;;;;;;;2.77;1.63;;;;;;;9.59;97.71;99661.03;4920058;29;20050;-76
2022/09/20 02:57:01;;;;;;;2.07;1.43;;;;;;;9.61;97.70;99664.31;4920124;29;20044;-76
2022/09/20 02:59:39;;;;;;;1.60;1.50;;;;;;;9.59;98.02;99674.31;4919735;29;20033;-76
2022/09/20 03:02:37;;;;;;;3.20;1.65;;;;;;;9.58;97.92;99678.00;4920199;29;20119;-75
2022/09/20 03:05:09;;;;;;;2.20;1.73;;;;;;;9.59;98.15;99690.28;4904485;29;20409;-75
2022/09/20 03:08:11;;;;;;;1.77;1.67;;;;;;;9.58;97.76;99688.63;4918482;29;20036;-76
2022/09/20 03:11:00;;;;;;;2.77;1.80;;;;;;;9.59;97.68;99700.91;4918469;29;20054;-77
2022/09/20 03:14:04;;;;;;;2.13;1.40;;;;;;;9.56;97.81;99695.94;4918419;29;20051;-76
2022/09/20 03:16:48;;;;;;;2.97;1.67;;;;;;;9.61;98.30;99698.88;4890422;29;20052;-75
2022/09/20 03:19:32;;;;;;;4.33;2.00;;;;;;;9.58;97.87;99709.88;4918232;29;20500;-76
2022/09/20 03:22:17;;;;;;;2.07;1.67;;;;;;;9.58;97.84;99712.53;4918146;29;20072;-76
2022/09/20 03:24:57;;;;;;;2.53;1.90;;;;;;;9.58;97.88;99725.84;4918103;29;20051;-77
2022/09/20 03:27:48;;;;;;;2.93;2.10;;;;;;;9.57;98.01;99728.69;4901138;29;20503;-75
2022/09/20 03:30:32;;;;;;;3.43;1.80;;;;;;;9.56;98.45;99725.19;4917916;29;20099;-76
2022/09/20 03:33:13;;;;;;;1.90;1.80;;;;;;;9.56;98.32;99738.47;4918429;29;20555;-76
2022/09/20 03:36:15;;;;;;;3.93;2.00;;;;;;;9.57;97.81;99734.00;4918150;29;20075;-78
2022/09/20 03:39:10;;;;;;;2.90;2.30;;;;;;;9.51;97.99;99721.41;4877612;29;20052;-76
2022/09/20 03:41:54;;;;;;;3.37;2.73;;;;;;;9.60;97.41;99753.06;4918245;29;20040;-75
2022/09/20 03:44:38;;;;;;;2.53;1.97;;;;;;;9.57;98.20;99750.75;4918531;29;20036;-75
2022/09/20 03:47:22;;;;;;;2.80;2.37;;;;;;;9.58;98.18;99767.53;4917931;29;20119;-75
2022/09/20 03:50:28;;;;;;;4.60;2.10;;;;;;;9.58;98.20;99765.72;4917897;29;20048;-75
2022/09/20 03:53:18;;;;;;;1.87;1.77;;;;;;;9.57;98.15;99764.06;4901024;29;20062;-76
2022/09/20 03:56:11;;;;;;;2.00;1.73;;;;;;;9.60;97.47;99766.34;4919281;29;20071;-76
2022/09/20 03:59:03;;;;;;;2.20;2.00;;;;;;;9.62;97.31;99774.97;4901437;29;20119;-77
2022/09/20 04:01:54;;;;;;;2.60;2.00;;;;;;;9.63;97.75;99786.44;4918302;29;20048;-76
2022/09/20 04:04:41;;;;;;;7.40;2.50;;;;;;;9.62;98.06;99790.09;4918159;29;20120;-76
2022/09/20 04:07:43;;;;;;;2.30;2.10;;;;;;;9.68;97.92;99796.53;4917976;29;20048;-76
2022/09/20 04:10:27;;;;;;;2.47;2.10;;;;;;;9.65;98.04;99803.03;4917814;29;20139;-76
2022/09/20 04:13:28;;;;;;;2.40;2.20;;;;;;;9.63;97.54;99803.19;4918241;29;20095;-77
2022/09/20 04:16:36;;;;;;;2.67;2.10;;;;;;;9.59;98.17;99806.41;4900728;29;20039;-77
2022/09/20 04:19:24;;;;;;;2.67;2.00;;;;;;;9.55;98.34;99813.91;4921445;29;20032;-77
2022/09/20 04:21:58;;;;;;;2.60;2.40;;;;;;;9.56;98.47;99817.41;4920587;29;20044;-78
2022/09/20 04:24:45;;;;;;;3.17;1.93;;;;;;;9.59;99.29;99833.81;4922097;29;20068;-80
2022/09/20 04:27:33;;;;;;;2.10;1.90;;;;;;;9.58;99.33;99832.16;4918729;29;20051;-77
2022/09/20 04:30:05;;;;;;;6.78;2.22;;;;;;;9.60;99.08;99843.44;4918327;29;20040;-78
2022/09/20 04:32:41;;;;;;;2.33;2.10;;;;;;;9.60;99.48;99846.09;4918494;29;20035;-76
2022/09/20 04:38:04;;;;;;;2.37;2.17;;;;;;;9.61;98.65;99858.38;4918836;29;20511;-76
2022/09/20 04:40:52;;;;;;;2.80;1.97;;;;;;;9.59;99.41;99846.28;4918438;29;20097;-78
2022/09/20 04:43:58;;;;;;;2.88;2.20;;;;;;;9.57;99.50;99851.78;4918867;29;20063;-78
2022/09/20 04:46:40;;;;;;;2.10;1.90;;;;;;;9.64;99.21;99862.50;4882528;29;20098;-79
2022/09/20 04:49:11;;;;;;;2.23;2.03;;;;;;;9.68;99.02;99873.63;4904823;29;20063;-82
2022/09/20 04:51:59;;;;;;;2.70;2.10;;;;;;;9.69;99.27;99875.28;4919202;29;20550;-77
2022/09/20 04:54:48;;;;;;;4.15;2.67;;;;;;;9.70;98.90;99890.22;4902163;29;20055;-78
2022/09/20 04:57:59;;;;;;;2.93;2.30;;;;;;;9.73;98.50;99887.19;4917494;29;20044;-79
2022/09/20 05:00:35;;;;;;;5.00;2.50;;;;;;;9.73;98.38;99895.19;4917697;29;20054;-79
2022/09/20 05:03:39;;;;;;;2.67;2.47;;;;;;;9.80;97.70;99910.22;4917307;29;20488;-79
2022/09/20 05:06:14;;;;;;;2.87;2.53;;;;;;;9.85;97.23;99915.88;4918756;29;20036;-78
2022/09/20 05:08:55;;;;;;;2.57;2.27;;;;;;;9.87;97.25;99910.38;4919713;29;20095;-78
2022/09/20 05:11:33;;;;;;;3.03;2.73;;;;;;;9.76;97.82;99902.78;4903222;29;20122;-79
2022/09/20 05:14:18;;;;;;;;;;;;;;;9.89;97.35;99926.97;4891461;29;20070;-79
2022/09/20 05:17:13;;;;;;;3.63;2.17;;;;;;;9.87;97.46;99926.31;4918703;29;19918;-78
2022/09/20 05:20:23;;;;;;;2.73;2.40;;;;;;;9.93;97.18;99931.75;4918362;29;20043;-81
2022/09/20 06:44:57;;;;;;;3.27;2.60;;;;;;;11.04;92.16;100103.34;5662107;23;20090;-80
2022/09/20 07:17:21;;;;;;;3.73;2.20;;;;;;;11.61;88.81;100182.75;5673233;23;20076;-81
2022/09/20 07:20:12;;;;;;;3.33;2.90;;;;;;;11.37;88.73;100157.16;4881921;29;20085;-81
2022/09/20 07:22:38;;;;;;;2.97;2.57;;;;;;;11.60;88.88;100186.41;4892477;29;20513;-79
2022/09/20 08:57:32;;;;;;;3.97;2.57;;;;;;;13.08;78.94;100339.31;5403822;23;20124;-79
2022/09/20 09:00:04;;;;;;;5.03;2.30;;;;;;;13.07;79.33;100341.16;4878942;29;20108;-78
2022/09/20 09:02:31;;;;;;;2.27;2.07;;;;;;;13.20;78.69;100357.34;4879320;29;20037;-80
2022/09/20 09:04:57;;;;;;;4.83;2.30;;;;;;;13.23;78.50;100367.66;4879058;29;20036;-79
2022/09/20 09:07:24;;;;;;;3.53;2.20;;;;;;;13.29;78.08;100376.78;4861564;29;20148;-80
2022/09/20 09:09:56;;;;;;;3.17;2.10;;;;;;;13.29;78.05;100396.31;4878931;29;20037;-79
2022/09/20 09:12:31;;;;;;;3.23;2.37;;;;;;;13.06;78.73;100386.78;4878648;29;20089;-80
2022/09/20 09:15:31;;;;;;;2.10;1.90;;;;;;;13.03;78.59;100404.88;4879379;29;20462;-78
2022/09/20 09:18:00;;;;;;;2.27;2.07;;;;;;;13.02;79.42;100402.38;4878723;29;20068;-78
2022/09/20 09:20:38;;;;;;;;;;;;;;;13.19;79.94;100413.69;4882310;29;20060;-81
2022/09/20 09:23:20;;;;;;;4.18;2.75;;;;;;;13.07;78.51;100377.75;4879088;29;19926;-80
2022/09/20 09:25:45;;;;;;;2.23;1.97;;;;;;;13.36;78.95;100425.00;4862172;29;20048;-79
2022/09/20 09:28:14;;;;;;;3.63;2.10;;;;;;;13.36;78.08;100425.84;4878854;29;20036;-80
2022/09/20 09:30:48;;;;;;;2.53;2.33;;;;;;;13.28;78.08;100429.44;4878666;29;20052;-78
2022/09/20 09:33:33;;;;;;;2.43;1.83;;;;;;;13.26;77.56;100436.00;4879021;29;20041;-80
2022/09/20 09:36:04;;;;;;;4.43;2.57;;;;;;;13.19;77.89;100435.91;4878166;29;20541;-82
2022/09/20 09:38:44;;;;;;;4.17;2.10;;;;;;;13.17;78.30;100440.63;4878699;29;20409;-79
2022/09/20 09:41:28;;;;;;;4.03;3.10;;;;;;;12.93;77.70;100419.53;4862649;29;20053;-80
2022/09/20 09:44:08;;;;;;;2.63;2.27;;;;;;;13.11;78.49;100449.38;4867484;29;20086;-80
2022/09/20 09:46:44;;;;;;;8.80;3.50;;;;;;;13.16;79.18;100449.63;4884798;29;20081;-79
2022/09/20 09:49:24;;;;;;;3.37;2.40;;;;;;;13.06;79.55;100459.81;4885570;29;20037;-80
2022/09/20 09:52:32;;;;;;;5.00;3.10;;;;;;;13.07;79.99;100469.47;4882433;29;20127;-80
2022/09/20 09:55:04;;;;;;;2.42;2.22;;;;;;;12.93;79.30;100473.81;4822366;29;20053;-77
2022/09/20 09:58:07;;;;;;;6.50;2.73;;;;;;;12.87;79.96;100460.34;4822195;29;20084;-80
2022/09/20 10:00:38;;;;;;;2.57;2.30;;;;;;;12.98;80.19;100491.97;4806217;29;20547;-80
2022/09/20 10:03:31;;;;;;;8.20;4.97;;;;;;;12.98;80.03;100502.66;4806702;29;20133;-81
2022/09/20 10:06:11;;;;;;;8.80;5.07;;;;;;;12.91;80.19;100502.56;4841098;29;20111;-79
2022/09/20 10:09:11;;;;;;;7.33;4.73;;;;;;;12.93;79.93;100507.72;4878204;29;20440;-79
2022/09/20 10:11:42;;;;;;;5.67;3.00;;;;;;;12.96;79.76;100515.38;4861983;29;20048;-79
2022/09/20 10:14:28;;;;;;;4.87;2.70;;;;;;;12.98;79.56;100516.00;4878379;29;20052;-78
2022/09/20 10:16:59;;;;;;;4.27;2.43;;;;;;;13.01;80.13;100521.03;4878381;29;20127;-79
2022/09/20 10:19:43;;;;;;;3.77;2.10;;;;;;;13.11;80.18;100528.75;4882284;29;20044;-79
2022/09/20 10:22:23;;;;;;;5.00;2.43;;;;;;;13.27;79.00;100539.28;4882838;29;20695;-79
2022/09/20 10:25:02;;;;;;;4.27;2.40;;;;;;;13.39;78.61;100539.66;4868588;29;20144;-79
2022/09/20 10:27:56;;;;;;;4.30;3.10;;;;;;;13.47;76.82;100550.25;4869297;29;20049;-78
2022/09/20 10:30:33;;;;;;;4.87;4.10;;;;;;;13.40;78.19;100533.28;4885746;29;20088;-79
2022/09/20 10:33:19;;;;;;;2.70;2.27;;;;;;;13.49;77.76;100541.00;4882840;29;20575;-78
2022/09/20 10:36:01;;;;;;;4.10;3.53;;;;;;;13.70;76.66;100558.97;4870148;29;20130;-80
2022/09/20 10:38:51;;;;;;;3.87;3.47;;;;;;;13.75;76.85;100559.25;4870742;29;20441;-80
2022/09/20 11:18:59;;;;;;;2.37;2.17;;;;;;;14.55;72.49;100612.66;4879092;29;20445;-79
2022/09/20 11:21:38;;;;;;;2.37;1.83;;;;;;;14.59;70.88;100615.78;4853341;29;20506;-79
2022/09/20 11:24:27;;;;;;;6.20;1.57;;;;;;;14.54;71.33;100624.41;4881116;29;20041;-81
2022/09/20 11:27:07;;;;;;;4.53;1.90;;;;;;;14.66;71.24;100634.59;4882327;29;20076;-79
2022/09/20 11:29:39;;;;;;;4.60;2.20;;;;;;;14.56;71.39;100621.53;4881619;29;20088;-80
2022/09/20 11:32:16;;;;;;;2.70;2.17;;;;;;;14.69;71.33;100637.72;4885556;29;20033;-77
2022/09/20 11:34:52;;;;;;;4.07;2.00;;;;;;;14.57;70.75;100612.47;4881980;29;20045;-77
2022/09/20 11:37:20;;;;;;;4.20;1.93;;;;;;;14.82;70.69;100651.25;4881334;29;20033;-78
2022/09/20 11:39:59;;;;;;;6.65;2.10;;;;;;;14.70;70.19;100654.63;4880166;29;20041;-75
2022/09/20 11:42:30;;;;;;;5.53;2.17;;;;;;;14.45;71.07;100657.69;4880557;29;20105;-76
2022/09/20 11:44:56;;;;;;;2.43;2.23;;;;;;;14.33;71.31;100661.84;4880707;29;20033;-75
2022/09/20 11:47:27;;;;;;;2.97;1.93;;;;;;;14.34;71.20;100658.16;4880603;29;20040;-79
2022/09/20 11:50:04;;;;;;;2.67;2.47;;;;;;;14.37;72.07;100665.81;4878461;29;20037;-77
2022/09/20 11:52:33;;;;;;;4.43;4.03;;;;;;;14.30;71.61;100645.34;4844294;29;20141;-77
2022/09/20 11:58:15;;;;;;;2.40;1.90;;;;;;;14.53;70.50;100676.34;4859823;29;20152;-78
2022/09/20 12:00:47;;;;;;;5.53;4.17;;;;;;;14.62;70.25;100687.75;4859862;29;20312;-78
2022/09/20 12:03:35;;;;;;;2.30;2.00;;;;;;;14.78;70.04;100692.06;4844060;29;20486;-77
2022/09/20 12:06:03;;;;;;;1.93;1.83;;;;;;;14.84;69.81;100676.03;4860586;29;20049;-77
2022/09/20 12:08:47;;;;;;;5.05;2.33;;;;;;;15.13;68.75;100699.16;4861173;29;20045;-77
2022/09/20 12:11:14;;;;;;;4.83;1.97;;;;;;;15.11;68.52;100693.16;4861108;29;20084;-76
2022/09/20 12:13:50;;;;;;;2.53;1.80;;;;;;;14.97;69.13;100710.16;4844670;29;20038;-77
2022/09/20 12:16:35;;;;;;;4.90;2.00;;;;;;;14.83;69.87;100711.06;4861330;29;20538;-75
2022/09/20 12:19:06;;;;;;;3.83;2.03;;;;;;;14.74;69.80;100709.50;4829367;29;20586;-76
2022/09/20 12:21:57;;;;;;;6.43;2.87;;;;;;;14.86;70.13;100716.03;4861746;29;20529;-76
2022/09/20 12:24:29;;;;;;;5.00;4.03;;;;;;;14.76;68.90;100705.66;4861338;29;20148;-76
2022/09/20 12:26:58;;;;;;;7.33;3.40;;;;;;;14.82;68.77;100730.84;4844783;29;20052;-74
2022/09/20 12:29:23;;;;;;;3.28;2.67;;;;;;;14.74;69.38;100726.44;4861094;29;20129;-74
2022/09/20 12:31:54;;;;;;;2.87;1.83;;;;;;;14.55;69.58;100725.22;4861397;29;20069;-74
2022/09/20 12:34:20;;;;;;;3.33;2.07;;;;;;;14.51;70.07;100739.19;4861364;29;20038;-76
2022/09/20 12:36:54;;;;;;;2.33;2.13;;;;;;;14.46;71.14;100737.06;4860877;29;20044;-75
2022/09/20 12:39:26;;;;;;;3.97;2.07;;;;;;;14.45;70.58;100737.22;4860885;29;20041;-75
2022/09/20 12:41:54;;;;;;;2.13;1.93;;;;;;;14.45;68.90;100748.78;4861121;29;20045;-74
2022/09/20 12:44:28;;;;;;;4.20;2.30;;;;;;;14.44;70.28;100751.66;4860270;29;20083;-74
2022/09/20 12:47:04;;;;;;;3.63;1.70;;;;;;;14.39;70.22;100754.03;4860496;29;20053;-74
2022/09/20 12:52:57;;;;;;;2.10;1.90;;;;;;;14.47;70.03;100762.84;4857912;29;20048;-76
2022/09/20 12:56:01;;;;;;;4.50;2.00;;;;;;;14.53;70.19;100764.78;4822392;29;20046;-76
2022/09/20 12:59:04;;;;;;;7.20;2.50;;;;;;;14.50;70.06;100767.84;4821968;29;20048;-76
2022/09/20 13:01:34;;;;;;;2.80;2.60;;;;;;;14.39;70.14;100756.72;4799142;29;20577;-75
2022/09/20 13:04:37;;;;;;;2.40;2.20;;;;;;;14.55;70.19;100776.13;4772589;29;20131;-76
2022/09/20 13:07:43;;;;;;;5.77;2.30;;;;;;;14.60;71.12;100788.97;4772273;29;20054;-77
2022/09/20 13:10:32;;;;;;;3.77;1.70;;;;;;;14.57;69.49;100779.44;4786225;29;20086;-75
2022/09/20 13:13:14;;;;;;;2.23;1.80;;;;;;;14.48;69.66;100785.94;4802061;29;20043;-75
2022/09/20 13:15:45;;;;;;;3.17;2.40;;;;;;;14.35;69.93;100779.53;4771903;29;20054;-76
2022/09/20 13:18:14;;;;;;;2.60;2.03;;;;;;;14.31;69.86;100791.66;4787729;29;20067;-76
2022/09/20 13:21:10;;;;;;;3.27;2.30;;;;;;;14.25;71.34;100791.38;4786505;29;20101;-77
2022/09/20 13:24:07;;;;;;;3.00;2.20;;;;;;;14.02;71.22;100763.03;4802205;29;20389;-75
2022/09/20 13:26:43;;;;;;;3.80;2.77;;;;;;;14.03;72.12;100754.00;4814305;29;20060;-76
2022/09/20 13:29:33;;;;;;;5.87;2.03;;;;;;;14.20;71.42;100782.25;4859578;29;20447;-77
2022/09/20 13:32:40;;;;;;;9.07;2.93;;;;;;;14.37;70.14;100794.41;4859537;29;20140;-76
2022/09/20 13:35:08;;;;;;;5.27;2.40;;;;;;;14.35;69.68;100806.34;4842876;29;20386;-75
2022/09/20 13:38:06;;;;;;;9.27;3.07;;;;;;;14.30;69.82;100798.84;4841551;29;20044;-77
2022/09/20 13:40:39;;;;;;;5.83;2.20;;;;;;;14.33;70.06;100814.56;4801267;29;20050;-76
2022/09/20 13:43:40;;;;;;;6.43;2.70;;;;;;;14.35;70.43;100817.88;4819794;29;20077;-76
2022/09/20 13:46:31;;;;;;;3.90;2.27;;;;;;;14.29;69.62;100824.00;4843233;29;20416;-75
2022/09/20 13:49:19;;;;;;;4.37;2.10;;;;;;;14.27;69.36;100816.13;4859964;29;20140;-76
2022/09/20 13:51:45;;;;;;;;;;;;;;;14.50;69.63;100825.97;4860347;29;20038;-76
2022/09/20 13:54:24;;;;;;;3.33;2.30;;;;;;;14.59;68.93;100824.00;4859823;29;19927;-75
2022/09/20 13:56:50;;;;;;;5.77;2.20;;;;;;;14.60;68.61;100828.34;4844732;29;20132;-77
2022/09/20 13:59:18;;;;;;;2.40;1.83;;;;;;;14.55;69.02;100837.78;4864044;29;20485;-76
2022/09/20 14:01:53;;;;;;;2.43;2.20;;;;;;;14.42;69.05;100840.22;4863989;29;20045;-76
2022/09/20 14:04:24;;;;;;;2.93;2.60;;;;;;;14.37;69.40;100842.63;4864179;29;20042;-74
2022/09/20 14:06:58;;;;;;;2.63;2.10;;;;;;;14.26;70.03;100845.78;4847612;29;20052;-76
2022/09/20 14:09:40;;;;;;;2.13;1.90;;;;;;;14.13;69.86;100850.94;4872365;29;20025;-77
2022/09/20 14:12:07;;;;;;;2.80;2.47;;;;;;;14.09;70.99;100855.00;4886372;29;20056;-76
2022/09/20 14:14:34;;;;;;;2.60;2.20;;;;;;;14.02;71.26;100862.13;4884627;29;20048;-75
2022/09/20 14:17:05;;;;;;;2.97;2.27;;;;;;;14.02;71.44;100865.63;4837467;29;20049;-76
2022/09/20 14:19:36;;;;;;;2.23;1.70;;;;;;;13.99;71.17;100873.19;4884053;29;20088;-77
2022/09/20 14:22:09;;;;;;;1.93;1.70;;;;;;;13.96;71.71;100877.06;4881114;29;20051;-74
2022/09/20 14:24:36;;;;;;;3.27;1.60;;;;;;;13.80;71.25;100870.00;4830282;29;20422;-75
2022/09/20 14:27:14;;;;;;;4.90;2.83;;;;;;;13.95;71.87;100894.16;4846030;29;20068;-76
2022/09/20 14:29:48;;;;;;;5.60;2.85;;;;;;;13.86;72.00;100888.00;4863109;29;20493;-77
2022/09/20 14:32:16;;;;;;;4.23;2.50;;;;;;;13.83;71.92;100899.09;4863149;29;20060;-75
2022/09/20 14:34:54;;;;;;;4.43;2.85;;;;;;;13.78;71.98;100904.16;4863171;29;20513;-76
2022/09/20 14:37:30;;;;;;;4.57;2.55;;;;;;;13.68;72.18;100900.06;4846342;29;20397;-77
2022/09/20 14:39:59;;;;;;;2.33;2.10;;;;;;;13.58;72.02;100911.81;4869335;29;20434;-76
2022/09/20 14:42:49;;;;;;;3.90;2.13;;;;;;;13.56;72.69;100918.38;4856329;29;20041;-76
2022/09/20 14:45:39;;;;;;;4.97;2.10;;;;;;;13.49;73.20;100912.91;4873028;29;20037;-76
2022/09/20 14:48:26;;;;;;;4.80;2.33;;;;;;;13.44;73.38;100917.13;4859206;29;20131;-74
2022/09/20 14:51:15;;;;;;;4.23;2.53;;;;;;;13.48;74.16;100923.78;4872381;29;20786;-76
2022/09/20 14:53:42;;;;;;;3.50;2.33;;;;;;;13.39;72.64;100927.53;4855430;29;20074;-74
2022/09/20 14:56:10;;;;;;;4.03;2.33;;;;;;;13.33;73.82;100937.94;4862478;29;20045;-76
2022/09/20 14:59:01;;;;;;;4.65;2.58;;;;;;;13.29;74.32;100938.44;4862524;29;20042;-77
2022/09/20 15:01:30;;;;;;;6.60;3.23;;;;;;;13.18;75.50;100937.00;4877861;29;20041;-77
2022/09/20 15:03:57;;;;;;;3.63;2.90;;;;;;;13.05;75.77;100944.72;4872357;29;20047;-77
2022/09/20 15:06:23;;;;;;;2.80;2.30;;;;;;;13.01;75.62;100946.09;4853162;29;20048;-76
2022/09/20 15:08:49;;;;;;;2.33;2.13;;;;;;;12.99;76.08;100953.41;4872366;29;20385;-77
2022/09/20 15:11:19;;;;;;;5.37;2.97;;;;;;;12.95;76.97;100957.44;4868672;29;20128;-78
2022/09/20 15:13:44;;;;;;;8.17;2.90;;;;;;;12.94;77.61;100961.97;4874492;29;20077;-76
2022/09/20 15:16:16;;;;;;;6.97;3.27;;;;;;;12.95;77.53;100963.63;4881315;29;20028;-74
2022/09/20 15:18:45;;;;;;;7.33;3.23;;;;;;;12.90;77.43;100975.84;4881170;29;20113;-74
2022/09/20 15:21:11;;;;;;;3.97;2.90;;;;;;;12.89;77.85;100968.84;4881971;29;20075;-75
2022/09/20 15:23:38;;;;;;;5.27;3.00;;;;;;;12.91;78.28;100988.22;4881634;29;20108;-74
2022/09/20 15:26:06;;;;;;;4.80;2.70;;;;;;;12.90;79.11;100991.88;4864345;29;20120;-78
2022/09/20 15:28:33;;;;;;;6.00;3.77;;;;;;;12.80;78.74;100980.56;4880840;29;20032;-77
2022/09/20 15:30:58;;;;;;;6.80;3.93;;;;;;;12.77;79.50;100991.63;4881746;29;20044;-77
2022/09/20 15:33:24;;;;;;;5.17;3.73;;;;;;;12.78;79.90;100999.47;4881673;29;20151;-75
2022/09/20 15:35:50;;;;;;;6.20;3.13;;;;;;;12.71;79.11;100996.59;4882778;29;20519;-75
2022/09/20 15:38:17;;;;;;;5.37;3.40;;;;;;;12.72;78.97;101002.78;4896640;29;20085;-75
2022/09/20 15:40:46;;;;;;;4.78;3.00;;;;;;;12.68;78.75;101004.13;4892823;29;20033;-76
2022/09/20 15:43:18;;;;;;;10.00;3.20;;;;;;;12.71;78.75;101025.16;4896947;29;20216;-74
2022/09/20 15:45:49;;;;;;;5.50;4.20;;;;;;;12.50;79.13;100996.34;4892596;29;20049;-75
2022/09/20 15:48:20;;;;;;;6.40;4.37;;;;;;;12.64;79.12;101019.69;4896400;29;20049;-74
2022/09/20 15:51:10;;;;;;;5.83;4.10;;;;;;;12.66;79.33;101031.03;4879104;29;20045;-76
2022/09/20 15:53:43;;;;;;;7.80;4.47;;;;;;;12.60;79.11;101031.72;4872489;29;20441;-76
2022/09/20 15:56:20;;;;;;;6.43;4.27;;;;;;;12.55;79.09;101030.56;4872440;29;20033;-76
2022/09/20 15:58:47;;;;;;;7.90;4.10;;;;;;;12.52;78.91;101030.91;4869460;29;20029;-78
2022/09/20 16:01:17;;;;;;;7.33;3.37;;;;;;;12.50;78.75;101044.44;4855263;29;20493;-78
2022/09/20 16:03:44;;;;;;;8.23;4.03;;;;;;;12.42;79.56;101041.75;4877440;29;20290;-78
2022/09/20 16:06:11;;;;;;;6.27;3.90;;;;;;;12.36;82.75;101053.09;4869829;29;20124;-77
2022/09/20 16:08:38;;;;;;;7.30;3.77;;;;;;;12.23;81.14;101047.44;4857923;29;20040;-81
2022/09/20 16:11:06;;;;;;;9.97;4.20;;;;;;;12.14;83.28;101049.25;4876827;29;20077;-77
2022/09/20 16:13:31;;;;;;;8.63;4.47;;;;;;;12.00;81.15;101053.41;4891649;29;20029;-75
2022/09/20 16:15:59;;;;;;;8.07;4.03;;;;;;;11.90;81.35;101047.41;4890987;29;20041;-78
2022/09/20 16:21:18;;;;;;;6.00;3.57;;;;;;;11.84;81.90;101063.19;4885520;29;20060;-74
2022/09/20 16:23:49;;;;;;;5.33;4.07;;;;;;;11.82;82.04;101068.72;4883011;29;20041;-74
2022/09/20 16:26:46;;;;;;;9.63;4.23;;;;;;;11.76;82.55;101066.66;4875879;29;20126;-77
2022/09/20 16:29:12;;;;;;;4.73;3.87;;;;;;;11.73;83.16;101067.81;4880844;29;20045;-76
2022/09/20 16:31:40;;;;;;;8.10;4.80;;;;;;;11.74;83.34;101077.50;4885921;29;20493;-77
2022/09/20 16:34:05;;;;;;;8.02;3.83;;;;;;;11.77;83.24;101079.00;4874982;29;20513;-79
2022/09/20 16:36:31;;;;;;;6.30;4.70;;;;;;;11.76;83.19;101085.34;4871318;29;20049;-78
2022/09/20 16:38:58;;;;;;;5.17;4.60;;;;;;;11.78;83.39;101086.03;4865166;29;20417;-77